sensor_id;sensor_type;location;lat;lon;timestamp;pressure;altitude;pressure_sealevel;temperature;humidity
86143;BME280;76799;50.146;22.704;2024-03-25T00:03:42;98343.50;;;1.13;80.03
86143;BME280;76799;50.146;22.704;2024-03-25T00:09:29;98343.50;;;1.13;80.10
86143;BME280;76799;50.146;22.704;2024-03-25T00:15:16;98340.06;;;1.13;79.91
86143;BME280;76799;50.146;22.704;2024-03-25T00:21:03;98331.44;;;1.12;80.32
86143;BME280;76799;50.146;22.704;2024-03-25T00:26:50;98333.47;;;1.09;79.78
86143;BME280;76799;50.146;22.704;2024-03-25T00:32:37;98329.38;;;1.06;79.77
86143;BME280;76799;50.146;22.704;2024-03-25T00:47:13;98320.44;;;0.99;80.86
86143;BME280;76799;50.146;22.704;2024-03-25T00:53:00;98321.81;;;1.03;81.11
86143;BME280;76799;50.146;22.704;2024-03-25T00:58:47;98319.91;;;1.05;81.27
86143;BME280;76799;50.146;22.704;2024-03-25T01:04:34;98326.75;;;1.06;81.07
86143;BME280;76799;50.146;22.704;2024-03-25T01:10:21;98314.69;;;1.05;81.48
86143;BME280;76799;50.146;22.704;2024-03-25T01:16:09;98313.19;;;1.12;81.83
86143;BME280;76799;50.146;22.704;2024-03-25T01:21:56;98312.63;;;1.18;81.41
86143;BME280;76799;50.146;22.704;2024-03-25T01:27:43;98322.38;;;1.16;82.95
86143;BME280;76799;50.146;22.704;2024-03-25T01:33:30;98321.53;;;1.06;83.51
86143;BME280;76799;50.146;22.704;2024-03-25T01:42:55;98323.72;;;1.01;83.20
86143;BME280;76799;50.146;22.704;2024-03-25T01:48:43;98310.84;;;1.09;83.00
86143;BME280;76799;50.146;22.704;2024-03-25T01:54:30;98311.94;;;1.16;82.60
86143;BME280;76799;50.146;22.704;2024-03-25T02:00:17;98310.69;;;1.20;82.66
86143;BME280;76799;50.146;22.704;2024-03-25T02:06:07;98316.88;;;1.19;82.35
86143;BME280;76799;50.146;22.704;2024-03-25T02:11:56;98313.84;;;1.14;82.82
86143;BME280;76799;50.146;22.704;2024-03-25T02:17:43;98320.69;;;1.06;82.37
86143;BME280;76799;50.146;22.704;2024-03-25T02:23:30;98326.47;;;1.09;82.50
86143;BME280;76799;50.146;22.704;2024-03-25T02:29:18;98334.44;;;1.17;82.68
86143;BME280;76799;50.146;22.704;2024-03-25T02:35:12;98327.84;;;1.23;82.64
86143;BME280;76799;50.146;22.704;2024-03-25T02:49:39;98322.91;;;1.29;83.60
86143;BME280;76799;50.146;22.704;2024-03-25T02:55:26;98326.47;;;1.37;84.31
86143;BME280;76799;50.146;22.704;2024-03-25T03:01:15;98328.94;;;1.39;83.69
86143;BME280;76799;50.146;22.704;2024-03-25T03:07:03;98325.91;;;1.43;84.77
86143;BME280;76799;50.146;22.704;2024-03-25T03:12:50;98313.00;;;1.51;84.81
86143;BME280;76799;50.146;22.704;2024-03-25T03:18:37;98311.09;;;1.44;84.66
86143;BME280;76799;50.146;22.704;2024-03-25T03:24:24;98307.41;;;1.37;85.05
86143;BME280;76799;50.146;22.704;2024-03-25T03:30:11;98310.25;;;1.43;85.11
86143;BME280;76799;50.146;22.704;2024-03-25T03:35:58;98313.28;;;1.48;84.68
86143;BME280;76799;50.146;22.704;2024-03-25T03:45:10;98330.84;;;1.56;84.20
86143;BME280;76799;50.146;22.704;2024-03-25T03:50:46;98331.38;;;1.59;84.12
86143;BME280;76799;50.146;22.704;2024-03-25T03:56:33;98318.50;;;1.58;83.94
86143;BME280;76799;50.146;22.704;2024-03-25T04:02:20;98315.88;;;1.58;84.14
86143;BME280;76799;50.146;22.704;2024-03-25T04:08:07;98327.41;;;1.55;84.81
86143;BME280;76799;50.146;22.704;2024-03-25T04:13:55;98333.59;;;1.64;84.59
86143;BME280;76799;50.146;22.704;2024-03-25T04:19:42;98324.53;;;1.68;84.78
86143;BME280;76799;50.146;22.704;2024-03-25T04:35:34;98312.00;;;1.81;85.14
86143;BME280;76799;50.146;22.704;2024-03-25T04:41:22;98309.91;;;1.84;85.33
86143;BME280;76799;50.146;22.704;2024-03-25T04:47:09;98306.31;;;1.85;85.18
86143;BME280;76799;50.146;22.704;2024-03-25T04:49:34;98305.25;;;1.88;85.36
86143;BME280;76799;50.146;22.704;2024-03-25T04:52:00;98304.97;;;1.91;84.46
86143;BME280;76799;50.146;22.704;2024-03-25T04:54:25;98308.25;;;1.93;85.34
86143;BME280;76799;50.146;22.704;2024-03-25T04:56:50;98310.69;;;1.94;85.47
86143;BME280;76799;50.146;22.704;2024-03-25T04:59:16;98319.22;;;1.96;85.29
86143;BME280;76799;50.146;22.704;2024-03-25T05:01:41;98320.72;;;1.99;84.91
86143;BME280;76799;50.146;22.704;2024-03-25T05:07:28;98321.94;;;2.04;85.48
86143;BME280;76799;50.146;22.704;2024-03-25T05:13:15;98318.91;;;2.09;84.58
86143;BME280;76799;50.146;22.704;2024-03-25T05:19:03;98321.63;;;2.17;84.79
86143;BME280;76799;50.146;22.704;2024-03-25T05:24:50;98319.81;;;2.17;85.62
86143;BME280;76799;50.146;22.704;2024-03-25T05:30:38;98324.34;;;2.25;84.46
86143;BME280;76799;50.146;22.704;2024-03-25T05:36:25;98332.00;;;2.36;84.83
86143;BME280;76799;50.146;22.704;2024-03-25T05:51:05;98329.91;;;2.66;85.00
86143;BME280;76799;50.146;22.704;2024-03-25T05:56:52;98333.13;;;2.77;84.96
86143;BME280;76799;50.146;22.704;2024-03-25T06:02:39;98337.03;;;2.91;85.16
86143;BME280;76799;50.146;22.704;2024-03-25T06:08:26;98341.53;;;2.98;85.72
86143;BME280;76799;50.146;22.704;2024-03-25T06:14:13;98347.38;;;3.10;85.77
86143;BME280;76799;50.146;22.704;2024-03-25T06:23:34;98353.28;;;3.29;85.46
86143;BME280;76799;50.146;22.704;2024-03-25T06:29:21;98359.94;;;3.41;86.17
86143;BME280;76799;50.146;22.704;2024-03-25T06:35:08;98364.25;;;3.50;86.23
86143;BME280;76799;50.146;22.704;2024-03-25T06:40:56;98361.94;;;3.65;86.70
86143;BME280;76799;50.146;22.704;2024-03-25T06:46:43;98369.72;;;3.74;87.76
86143;BME280;76799;50.146;22.704;2024-03-25T06:52:30;98362.44;;;3.85;87.90
86143;BME280;76799;50.146;22.704;2024-03-25T06:58:19;98372.81;;;3.95;88.11
86143;BME280;76799;50.146;22.704;2024-03-25T07:27:38;98378.56;;;4.91;87.76
86143;BME280;76799;50.146;22.704;2024-03-25T07:33:26;98384.84;;;5.05;87.61
86143;BME280;76799;50.146;22.704;2024-03-25T07:39:13;98381.97;;;5.24;87.07
86143;BME280;76799;50.146;22.704;2024-03-25T07:50:21;98392.53;;;5.72;88.17
86143;BME280;76799;50.146;22.704;2024-03-25T07:56:08;98403.75;;;5.98;86.53
86143;BME280;76799;50.146;22.704;2024-03-25T08:01:37;98390.59;;;6.14;84.56
86143;BME280;76799;50.146;22.704;2024-03-25T08:07:24;98401.41;;;6.27;80.79
86143;BME280;76799;50.146;22.704;2024-03-25T08:13:12;98388.56;;;6.48;79.18
86143;BME280;76799;50.146;22.704;2024-03-25T08:18:39;98394.41;;;6.74;80.85
86143;BME280;76799;50.146;22.704;2024-03-25T08:24:07;98379.16;;;7.00;80.58
86143;BME280;76799;50.146;22.704;2024-03-25T08:29:35;98385.16;;;7.16;78.33
86143;BME280;76799;50.146;22.704;2024-03-25T08:35:22;98391.69;;;7.28;76.43
86143;BME280;76799;50.146;22.704;2024-03-25T08:40:51;98395.41;;;7.42;74.39
86143;BME280;76799;50.146;22.704;2024-03-25T08:55:18;98396.63;;;7.98;74.11
86143;BME280;76799;50.146;22.704;2024-03-25T09:00:46;98396.69;;;8.13;71.17
86143;BME280;76799;50.146;22.704;2024-03-25T09:06:33;98393.84;;;8.14;69.70
86143;BME280;76799;50.146;22.704;2024-03-25T09:12:01;98392.94;;;8.30;70.47
86143;BME280;76799;50.146;22.704;2024-03-25T09:17:29;98398.50;;;8.49;73.10
86143;BME280;76799;50.146;22.704;2024-03-25T09:23:17;98395.16;;;8.70;73.25
86143;BME280;76799;50.146;22.704;2024-03-25T09:29:05;98394.41;;;8.90;76.00
86143;BME280;76799;50.146;22.704;2024-03-25T09:34:52;98389.59;;;8.79;68.96
86143;BME280;76799;50.146;22.704;2024-03-25T09:40:41;98387.03;;;9.00;68.00
86143;BME280;76799;50.146;22.704;2024-03-25T09:50:04;98374.66;;;9.00;63.29
86143;BME280;76799;50.146;22.704;2024-03-25T09:55:52;98377.63;;;9.12;62.35
86143;BME280;76799;50.146;22.704;2024-03-25T10:01:39;98384.81;;;9.18;64.65
86143;BME280;76799;50.146;22.704;2024-03-25T10:07:27;98376.16;;;9.59;64.16
86143;BME280;76799;50.146;22.704;2024-03-25T10:13:15;98380.34;;;9.54;62.71
86143;BME280;76799;50.146;22.704;2024-03-25T10:19:02;98374.69;;;9.57;63.82
86143;BME280;76799;50.146;22.704;2024-03-25T10:24:49;98370.03;;;9.59;64.42
86143;BME280;76799;50.146;22.704;2024-03-25T10:30:37;98377.28;;;9.71;63.76
86143;BME280;76799;50.146;22.704;2024-03-25T10:36:25;98375.34;;;10.01;63.39
86143;BME280;76799;50.146;22.704;2024-03-25T10:42:13;98370.84;;;10.22;63.52
86143;BME280;76799;50.146;22.704;2024-03-25T10:51:22;98363.97;;;10.27;61.33
86143;BME280;76799;50.146;22.704;2024-03-25T10:57:12;98357.66;;;10.28;59.24
86143;BME280;76799;50.146;22.704;2024-03-25T11:02:59;98366.97;;;10.45;57.33
86143;BME280;76799;50.146;22.704;2024-03-25T11:08:56;98349.00;;;10.41;60.02
86143;BME280;76799;50.146;22.704;2024-03-25T11:14:44;98356.00;;;10.55;60.11
86143;BME280;76799;50.146;22.704;2024-03-25T11:20:31;98354.72;;;10.44;59.58
86143;BME280;76799;50.146;22.704;2024-03-25T11:32:06;98354.44;;;10.60;59.79
86143;BME280;76799;50.146;22.704;2024-03-25T11:37:54;98356.47;;;10.65;59.47
86143;BME280;76799;50.146;22.704;2024-03-25T11:43:42;98358.66;;;10.89;58.49
86143;BME280;76799;50.146;22.704;2024-03-25T11:55:26;98339.63;;;11.19;55.66
86143;BME280;76799;50.146;22.704;2024-03-25T12:01:13;98344.63;;;11.48;56.81
86143;BME280;76799;50.146;22.704;2024-03-25T12:07:00;98337.72;;;11.00;56.51
86143;BME280;76799;50.146;22.704;2024-03-25T12:12:23;98338.50;;;10.94;56.57
86143;BME280;76799;50.146;22.704;2024-03-25T12:18:10;98322.78;;;10.93;56.76
86143;BME280;76799;50.146;22.704;2024-03-25T12:23:57;98323.22;;;10.96;57.39
86143;BME280;76799;50.146;22.704;2024-03-25T12:29:57;98319.09;;;11.34;56.61
86143;BME280;76799;50.146;22.704;2024-03-25T12:35:48;98316.56;;;12.12;54.64
86143;BME280;76799;50.146;22.704;2024-03-25T12:41:35;98314.31;;;11.96;52.54
86143;BME280;76799;50.146;22.704;2024-03-25T12:47:22;98318.56;;;11.71;52.62
86143;BME280;76799;50.146;22.704;2024-03-25T12:58:29;98307.00;;;12.80;51.69
86143;BME280;76799;50.146;22.704;2024-03-25T13:04:16;98317.63;;;12.87;51.18
86143;BME280;76799;50.146;22.704;2024-03-25T13:10:03;98317.25;;;13.34;50.79
86143;BME280;76799;50.146;22.704;2024-03-25T13:15:51;98319.59;;;13.79;48.33
86143;BME280;76799;50.146;22.704;2024-03-25T13:21:38;98313.16;;;13.93;48.43
86143;BME280;76799;50.146;22.704;2024-03-25T13:27:26;98303.91;;;13.71;48.70
86143;BME280;76799;50.146;22.704;2024-03-25T13:33:13;98319.97;;;13.14;51.61
86143;BME280;76799;50.146;22.704;2024-03-25T14:00:45;98318.09;;;13.21;48.25
86143;BME280;76799;50.146;22.704;2024-03-25T14:06:32;98328.41;;;13.05;50.28
86143;BME280;76799;50.146;22.704;2024-03-25T14:15:41;98324.50;;;13.07;50.86
86143;BME280;76799;50.146;22.704;2024-03-25T14:21:28;98323.91;;;13.49;49.79
86143;BME280;76799;50.146;22.704;2024-03-25T14:27:15;98344.63;;;12.77;50.22
86143;BME280;76799;50.146;22.704;2024-03-25T14:32:50;98342.59;;;12.73;50.95
86143;BME280;76799;50.146;22.704;2024-03-25T14:38:37;98338.81;;;12.11;53.11
86143;BME280;76799;50.146;22.704;2024-03-25T14:44:26;98345.13;;;11.84;56.17
86143;BME280;76799;50.146;22.704;2024-03-25T14:50:14;98344.50;;;11.69;56.36
86143;BME280;76799;50.146;22.704;2024-03-25T14:56:01;98350.72;;;11.42;56.30
86143;BME280;76799;50.146;22.704;2024-03-25T15:46:04;98433.50;;;9.80;66.01
86143;BME280;76799;50.146;22.704;2024-03-25T15:51:52;98441.84;;;9.41;68.89
86143;BME280;76799;50.146;22.704;2024-03-25T15:57:39;98444.41;;;9.06;72.20
86143;BME280;76799;50.146;22.704;2024-03-25T16:21:29;98463.16;;;8.31;74.56
86143;BME280;76799;50.146;22.704;2024-03-25T16:42:40;98478.41;;;8.21;75.94
86143;BME280;76799;50.146;22.704;2024-03-25T16:48:27;98490.78;;;8.12;75.80
86143;BME280;76799;50.146;22.704;2024-03-25T16:54:15;98491.75;;;7.97;76.58
86143;BME280;76799;50.146;22.704;2024-03-25T17:10:14;98519.81;;;7.60;76.02
86143;BME280;76799;50.146;22.704;2024-03-25T17:19:22;98524.03;;;7.30;76.48
86143;BME280;76799;50.146;22.704;2024-03-25T17:25:09;98536.41;;;7.22;77.17
86143;BME280;76799;50.146;22.704;2024-03-25T17:30:55;98546.78;;;7.15;77.22
86143;BME280;76799;50.146;22.704;2024-03-25T17:36:08;98543.03;;;7.10;76.97
86143;BME280;76799;50.146;22.704;2024-03-25T17:41:55;98547.00;;;7.06;77.27
86143;BME280;76799;50.146;22.704;2024-03-25T17:47:46;98546.69;;;6.93;77.91
86143;BME280;76799;50.146;22.704;2024-03-25T17:53:33;98554.25;;;6.80;78.57
86143;BME280;76799;50.146;22.704;2024-03-25T17:59:20;98553.94;;;6.67;79.52
86143;BME280;76799;50.146;22.704;2024-03-25T18:05:08;98559.34;;;6.65;79.11
86143;BME280;76799;50.146;22.704;2024-03-25T18:21:00;98569.69;;;6.19;79.45
86143;BME280;76799;50.146;22.704;2024-03-25T18:26:29;98574.09;;;6.11;79.15
86143;BME280;76799;50.146;22.704;2024-03-25T18:32:16;98568.81;;;5.95;78.81
86143;BME280;76799;50.146;22.704;2024-03-25T18:46:51;98590.69;;;5.70;78.83
86143;BME280;76799;50.146;22.704;2024-03-25T18:52:20;98593.41;;;5.52;79.87
86143;BME280;76799;50.146;22.704;2024-03-25T18:58:07;98602.56;;;5.40;79.39
86143;BME280;76799;50.146;22.704;2024-03-25T19:04:14;98601.97;;;5.29;79.59
86143;BME280;76799;50.146;22.704;2024-03-25T19:10:02;98603.88;;;5.19;77.47
86143;BME280;76799;50.146;22.704;2024-03-25T19:15:51;98616.09;;;5.03;78.33
86143;BME280;76799;50.146;22.704;2024-03-25T19:21:19;98617.31;;;4.91;79.09
86143;BME280;76799;50.146;22.704;2024-03-25T19:26:47;98633.16;;;4.81;78.88
86143;BME280;76799;50.146;22.704;2024-03-25T19:32:15;98632.56;;;4.70;78.58
86143;BME280;76799;50.146;22.704;2024-03-25T19:49:29;98654.75;;;4.40;78.94
86143;BME280;76799;50.146;22.704;2024-03-25T20:15:08;98672.47;;;3.84;78.26
86143;BME280;76799;50.146;22.704;2024-03-25T20:20:36;98679.38;;;3.76;78.43
86143;BME280;76799;50.146;22.704;2024-03-25T20:26:23;98677.31;;;3.70;79.33
86143;BME280;76799;50.146;22.704;2024-03-25T20:31:51;98682.28;;;3.73;80.28
86143;BME280;76799;50.146;22.704;2024-03-25T20:37:38;98686.03;;;3.71;80.23
86143;BME280;76799;50.146;22.704;2024-03-25T20:48:21;98696.91;;;3.66;79.71
86143;BME280;76799;50.146;22.704;2024-03-25T20:54:09;98700.09;;;3.60;79.17
86143;BME280;76799;50.146;22.704;2024-03-25T20:59:56;98704.25;;;3.53;79.38
86143;BME280;76799;50.146;22.704;2024-03-25T21:05:57;98712.66;;;3.47;79.72
86143;BME280;76799;50.146;22.704;2024-03-25T21:11:44;98713.13;;;3.33;79.36
86143;BME280;76799;50.146;22.704;2024-03-25T21:17:31;98715.34;;;3.28;78.96
86143;BME280;76799;50.146;22.704;2024-03-25T21:23:18;98721.81;;;3.24;78.72
86143;BME280;76799;50.146;22.704;2024-03-25T21:29:05;98721.97;;;3.13;79.00
86143;BME280;76799;50.146;22.704;2024-03-25T21:34:52;98726.38;;;3.03;79.26
86143;BME280;76799;50.146;22.704;2024-03-25T21:40:39;98726.81;;;2.99;79.82
86143;BME280;76799;50.146;22.704;2024-03-25T21:45:50;98729.41;;;2.99;80.04
86143;BME280;76799;50.146;22.704;2024-03-25T21:51:39;98732.44;;;2.94;79.82
86143;BME280;76799;50.146;22.704;2024-03-25T21:57:27;98736.56;;;2.87;79.31
86143;BME280;76799;50.146;22.704;2024-03-25T22:03:14;98734.91;;;2.86;80.32
86143;BME280;76799;50.146;22.704;2024-03-25T22:09:01;98744.94;;;2.81;79.98
86143;BME280;76799;50.146;22.704;2024-03-25T22:14:48;98745.91;;;2.80;79.26
86143;BME280;76799;50.146;22.704;2024-03-25T22:20:38;98754.56;;;2.71;79.46
86143;BME280;76799;50.146;22.704;2024-03-25T22:26:25;98748.66;;;2.69;80.02
86143;BME280;76799;50.146;22.704;2024-03-25T22:32:12;98762.69;;;2.68;80.16
86143;BME280;76799;50.146;22.704;2024-03-25T22:37:59;98756.06;;;2.64;79.80
86143;BME280;76799;50.146;22.704;2024-03-25T22:43:46;98758.00;;;2.44;80.55
86143;BME280;76799;50.146;22.704;2024-03-25T22:54:29;98760.47;;;2.45;79.90
86143;BME280;76799;50.146;22.704;2024-03-25T23:00:16;98766.22;;;2.39;79.86
86143;BME280;76799;50.146;22.704;2024-03-25T23:06:04;98775.69;;;2.31;79.95
86143;BME280;76799;50.146;22.704;2024-03-25T23:11:51;98778.56;;;2.28;79.78
86143;BME280;76799;50.146;22.704;2024-03-25T23:17:38;98781.03;;;2.20;78.33
86143;BME280;76799;50.146;22.704;2024-03-25T23:23:25;98790.34;;;2.13;79.04
86143;BME280;76799;50.146;22.704;2024-03-25T23:29:12;98781.13;;;2.09;79.64
86143;BME280;76799;50.146;22.704;2024-03-25T23:34:59;98784.00;;;2.06;79.75
86143;BME280;76799;50.146;22.704;2024-03-25T23:40:48;98784.25;;;2.03;79.87
86143;BME280;76799;50.146;22.704;2024-03-25T23:46:35;98792.19;;;2.01;79.91
86143;BME280;76799;50.146;22.704;2024-03-25T23:51:46;98791.91;;;1.95;79.51
86143;BME280;76799;50.146;22.704;2024-03-25T23:57:33;98797.91;;;1.86;79.70
